sensor_id;sensor_type;location;lat;lon;timestamp;pressure;altitude;pressure_sealevel;temperature;humidity
12987;BME280;58897;51.960;5.582;2023-03-14T00:00:24;98605.19;;;11.27;100.00
12987;BME280;58897;51.960;5.582;2023-03-14T00:02:53;98618.16;;;11.18;100.00
12987;BME280;58897;51.960;5.582;2023-03-14T00:05:20;98621.47;;;11.20;100.00
12987;BME280;58897;51.960;5.582;2023-03-14T00:07:47;98612.81;;;11.11;100.00
12987;BME280;58897;51.960;5.582;2023-03-14T00:10:15;98623.84;;;11.10;100.00
12987;BME280;58897;51.960;5.582;2023-03-14T00:12:42;98609.94;;;11.06;100.00
12987;BME280;58897;51.960;5.582;2023-03-14T00:15:10;98610.59;;;11.02;100.00
12987;BME280;58897;51.960;5.582;2023-03-14T00:17:37;98616.88;;;10.96;100.00
12987;BME280;58897;51.960;5.582;2023-03-14T00:20:06;98612.72;;;10.93;100.00
12987;BME280;58897;51.960;5.582;2023-03-14T00:22:35;98603.44;;;10.89;100.00
12987;BME280;58897;51.960;5.582;2023-03-14T00:25:03;98603.19;;;10.91;100.00
12987;BME280;58897;51.960;5.582;2023-03-14T00:27:31;98613.16;;;10.90;100.00
12987;BME280;58897;51.960;5.582;2023-03-14T00:29:58;98609.47;;;10.85;100.00
12987;BME280;58897;51.960;5.582;2023-03-14T00:32:25;98611.13;;;10.86;100.00
12987;BME280;58897;51.960;5.582;2023-03-14T00:34:51;98609.03;;;10.88;100.00
12987;BME280;58897;51.960;5.582;2023-03-14T00:37:18;98615.75;;;10.79;100.00
12987;BME280;58897;51.960;5.582;2023-03-14T00:39:45;98606.59;;;10.80;100.00
12987;BME280;58897;51.960;5.582;2023-03-14T00:42:11;98602.72;;;10.69;100.00
12987;BME280;58897;51.960;5.582;2023-03-14T00:44:38;98610.00;;;10.69;100.00
12987;BME280;58897;51.960;5.582;2023-03-14T00:47:05;98618.47;;;10.72;100.00
12987;BME280;58897;51.960;5.582;2023-03-14T00:49:34;98605.16;;;10.77;100.00
12987;BME280;58897;51.960;5.582;2023-03-14T00:52:01;98618.88;;;10.76;100.00
12987;BME280;58897;51.960;5.582;2023-03-14T00:54:27;98614.31;;;10.76;100.00
12987;BME280;58897;51.960;5.582;2023-03-14T00:56:54;98619.50;;;10.78;100.00
12987;BME280;58897;51.960;5.582;2023-03-14T00:59:21;98611.22;;;10.73;100.00
12987;BME280;58897;51.960;5.582;2023-03-14T01:01:48;98593.16;;;10.73;100.00
12987;BME280;58897;51.960;5.582;2023-03-14T01:04:14;98587.50;;;10.75;100.00
12987;BME280;58897;51.960;5.582;2023-03-14T01:06:41;98583.38;;;10.72;100.00
12987;BME280;58897;51.960;5.582;2023-03-14T01:09:07;98577.53;;;10.75;100.00
12987;BME280;58897;51.960;5.582;2023-03-14T01:11:35;98594.00;;;10.67;100.00
12987;BME280;58897;51.960;5.582;2023-03-14T01:14:03;98598.19;;;10.63;100.00
12987;BME280;58897;51.960;5.582;2023-03-14T01:16:32;98603.19;;;10.66;100.00
12987;BME280;58897;51.960;5.582;2023-03-14T01:18:59;98603.88;;;10.48;100.00
12987;BME280;58897;51.960;5.582;2023-03-14T01:21:29;98612.69;;;10.37;100.00
12987;BME280;58897;51.960;5.582;2023-03-14T01:23:57;98613.56;;;10.25;100.00
12987;BME280;58897;51.960;5.582;2023-03-14T01:26:26;98619.84;;;10.12;100.00
12987;BME280;58897;51.960;5.582;2023-03-14T01:28:54;98631.69;;;9.98;100.00
12987;BME280;58897;51.960;5.582;2023-03-14T01:31:21;98622.59;;;9.92;100.00
12987;BME280;58897;51.960;5.582;2023-03-14T01:33:50;98626.69;;;10.02;100.00
12987;BME280;58897;51.960;5.582;2023-03-14T01:36:17;98626.13;;;9.93;100.00
12987;BME280;58897;51.960;5.582;2023-03-14T01:38:44;98629.84;;;9.92;100.00
12987;BME280;58897;51.960;5.582;2023-03-14T01:41:37;98622.56;;;9.99;100.00
12987;BME280;58897;51.960;5.582;2023-03-14T01:44:03;98620.69;;;10.00;100.00
12987;BME280;58897;51.960;5.582;2023-03-14T01:46:37;98622.97;;;9.96;100.00
12987;BME280;58897;51.960;5.582;2023-03-14T01:51:59;98641.75;;;9.52;100.00
12987;BME280;58897;51.960;5.582;2023-03-14T01:54:39;98648.78;;;9.53;100.00
12987;BME280;58897;51.960;5.582;2023-03-14T01:57:36;98655.03;;;9.53;100.00
12987;BME280;58897;51.960;5.582;2023-03-14T02:00:07;98664.34;;;9.31;100.00
12987;BME280;58897;51.960;5.582;2023-03-14T02:02:58;98660.00;;;9.30;100.00
12987;BME280;58897;51.960;5.582;2023-03-14T02:05:29;98661.25;;;9.47;100.00
12987;BME280;58897;51.960;5.582;2023-03-14T02:08:00;98650.91;;;9.24;100.00
12987;BME280;58897;51.960;5.582;2023-03-14T02:10:32;98658.56;;;9.27;100.00
12987;BME280;58897;51.960;5.582;2023-03-14T02:13:01;98655.66;;;9.29;100.00
12987;BME280;58897;51.960;5.582;2023-03-14T02:15:29;98652.13;;;9.22;100.00
12987;BME280;58897;51.960;5.582;2023-03-14T02:17:56;98662.31;;;9.20;100.00
12987;BME280;58897;51.960;5.582;2023-03-14T02:23:17;98669.94;;;9.10;100.00
12987;BME280;58897;51.960;5.582;2023-03-14T02:25:54;98653.19;;;9.14;100.00
12987;BME280;58897;51.960;5.582;2023-03-14T02:28:22;98655.25;;;8.99;100.00
12987;BME280;58897;51.960;5.582;2023-03-14T02:30:49;98655.03;;;9.01;100.00
12987;BME280;58897;51.960;5.582;2023-03-14T02:33:18;98647.56;;;9.16;100.00
12987;BME280;58897;51.960;5.582;2023-03-14T02:35:56;98648.00;;;9.06;100.00
12987;BME280;58897;51.960;5.582;2023-03-14T02:38:33;98640.13;;;9.11;100.00
12987;BME280;58897;51.960;5.582;2023-03-14T02:41:02;98636.41;;;9.12;100.00
12987;BME280;58897;51.960;5.582;2023-03-14T02:43:29;98636.59;;;9.11;100.00
12987;BME280;58897;51.960;5.582;2023-03-14T02:45:55;98629.13;;;9.19;100.00
12987;BME280;58897;51.960;5.582;2023-03-14T02:48:28;98629.13;;;9.00;100.00
12987;BME280;58897;51.960;5.582;2023-03-14T02:50:57;98630.59;;;9.09;100.00
12987;BME280;58897;51.960;5.582;2023-03-14T02:53:28;98628.53;;;9.17;100.00
12987;BME280;58897;51.960;5.582;2023-03-14T02:55:55;98622.91;;;9.19;100.00
12987;BME280;58897;51.960;5.582;2023-03-14T02:58:22;98614.63;;;9.14;100.00
12987;BME280;58897;51.960;5.582;2023-03-14T03:00:48;98608.00;;;9.16;100.00
12987;BME280;58897;51.960;5.582;2023-03-14T03:03:15;98607.16;;;9.16;100.00
12987;BME280;58897;51.960;5.582;2023-03-14T03:05:42;98599.91;;;9.16;100.00
12987;BME280;58897;51.960;5.582;2023-03-14T03:08:10;98596.63;;;9.14;100.00
12987;BME280;58897;51.960;5.582;2023-03-14T03:10:36;98598.03;;;9.10;100.00
12987;BME280;58897;51.960;5.582;2023-03-14T03:13:03;98603.84;;;9.20;100.00
12987;BME280;58897;51.960;5.582;2023-03-14T03:15:30;98599.50;;;9.13;100.00
12987;BME280;58897;51.960;5.582;2023-03-14T03:17:57;98594.13;;;9.06;100.00
12987;BME280;58897;51.960;5.582;2023-03-14T03:20:24;98588.31;;;9.16;100.00
12987;BME280;58897;51.960;5.582;2023-03-14T03:22:50;98583.97;;;9.15;100.00
12987;BME280;58897;51.960;5.582;2023-03-14T03:25:17;98581.69;;;9.12;100.00
12987;BME280;58897;51.960;5.582;2023-03-14T03:27:44;98580.25;;;9.09;100.00
12987;BME280;58897;51.960;5.582;2023-03-14T03:30:10;98585.00;;;9.14;100.00
12987;BME280;58897;51.960;5.582;2023-03-14T03:32:37;98590.59;;;9.19;100.00
12987;BME280;58897;51.960;5.582;2023-03-14T03:35:04;98588.13;;;9.17;100.00
12987;BME280;58897;51.960;5.582;2023-03-14T03:37:32;98590.38;;;9.20;100.00
12987;BME280;58897;51.960;5.582;2023-03-14T03:39:59;98579.41;;;9.22;100.00
12987;BME280;58897;51.960;5.582;2023-03-14T03:42:27;98571.50;;;9.20;100.00
12987;BME280;58897;51.960;5.582;2023-03-14T03:44:54;98571.09;;;9.23;100.00
12987;BME280;58897;51.960;5.582;2023-03-14T03:47:20;98569.03;;;9.19;100.00
12987;BME280;58897;51.960;5.582;2023-03-14T03:49:47;98560.53;;;9.15;100.00
12987;BME280;58897;51.960;5.582;2023-03-14T03:52:13;98558.69;;;9.16;100.00
12987;BME280;58897;51.960;5.582;2023-03-14T03:54:40;98566.97;;;9.14;100.00
12987;BME280;58897;51.960;5.582;2023-03-14T03:57:06;98576.28;;;9.18;100.00
12987;BME280;58897;51.960;5.582;2023-03-14T03:59:33;98554.53;;;9.20;100.00
12987;BME280;58897;51.960;5.582;2023-03-14T04:02:00;98562.63;;;9.20;100.00
12987;BME280;58897;51.960;5.582;2023-03-14T04:04:27;98552.28;;;9.17;100.00
12987;BME280;58897;51.960;5.582;2023-03-14T04:06:54;98561.16;;;9.24;100.00
12987;BME280;58897;51.960;5.582;2023-03-14T04:09:20;98561.56;;;9.21;100.00
12987;BME280;58897;51.960;5.582;2023-03-14T04:11:47;98559.31;;;9.24;100.00
12987;BME280;58897;51.960;5.582;2023-03-14T04:14:14;98559.50;;;9.23;100.00
12987;BME280;58897;51.960;5.582;2023-03-14T04:16:40;98550.38;;;9.24;100.00
12987;BME280;58897;51.960;5.582;2023-03-14T04:19:07;98571.50;;;9.20;100.00
12987;BME280;58897;51.960;5.582;2023-03-14T04:21:33;98559.72;;;9.21;100.00
12987;BME280;58897;51.960;5.582;2023-03-14T04:24:00;98546.84;;;9.23;100.00
12987;BME280;58897;51.960;5.582;2023-03-14T04:26:26;98552.44;;;9.28;100.00
12987;BME280;58897;51.960;5.582;2023-03-14T04:28:53;98550.56;;;9.29;100.00
12987;BME280;58897;51.960;5.582;2023-03-14T04:31:21;98554.53;;;9.33;100.00
12987;BME280;58897;51.960;5.582;2023-03-14T04:33:48;98549.75;;;9.35;100.00
12987;BME280;58897;51.960;5.582;2023-03-14T04:36:14;98551.84;;;9.33;100.00
12987;BME280;58897;51.960;5.582;2023-03-14T04:38:41;98550.78;;;9.34;100.00
12987;BME280;58897;51.960;5.582;2023-03-14T04:41:07;98558.25;;;9.32;100.00
12987;BME280;58897;51.960;5.582;2023-03-14T04:43:34;98550.78;;;9.34;100.00
12987;BME280;58897;51.960;5.582;2023-03-14T04:46:00;98554.94;;;9.30;100.00
12987;BME280;58897;51.960;5.582;2023-03-14T04:48:27;98537.72;;;9.31;100.00
12987;BME280;58897;51.960;5.582;2023-03-14T04:50:54;98550.59;;;9.36;100.00
12987;BME280;58897;51.960;5.582;2023-03-14T04:53:21;98544.34;;;9.35;100.00
12987;BME280;58897;51.960;5.582;2023-03-14T04:55:54;98542.28;;;9.37;100.00
12987;BME280;58897;51.960;5.582;2023-03-14T04:58:22;98530.47;;;9.31;100.00
12987;BME280;58897;51.960;5.582;2023-03-14T05:00:49;98535.03;;;9.38;100.00
12987;BME280;58897;51.960;5.582;2023-03-14T05:03:17;98535.84;;;9.31;100.00
12987;BME280;58897;51.960;5.582;2023-03-14T05:05:44;98540.22;;;9.32;100.00
12987;BME280;58897;51.960;5.582;2023-03-14T05:08:11;98530.47;;;9.31;100.00
12987;BME280;58897;51.960;5.582;2023-03-14T05:10:38;98529.84;;;9.29;100.00
12987;BME280;58897;51.960;5.582;2023-03-14T05:13:04;98536.28;;;9.28;100.00
12987;BME280;58897;51.960;5.582;2023-03-14T05:15:31;98534.44;;;9.22;100.00
12987;BME280;58897;51.960;5.582;2023-03-14T05:17:58;98532.97;;;9.26;100.00
12987;BME280;58897;51.960;5.582;2023-03-14T05:20:24;98530.09;;;9.28;100.00
12987;BME280;58897;51.960;5.582;2023-03-14T05:22:51;98536.09;;;9.30;100.00
12987;BME280;58897;51.960;5.582;2023-03-14T05:25:17;98534.63;;;9.27;100.00
12987;BME280;58897;51.960;5.582;2023-03-14T05:27:44;98529.84;;;9.23;100.00
12987;BME280;58897;51.960;5.582;2023-03-14T05:30:11;98535.28;;;9.16;100.00
12987;BME280;58897;51.960;5.582;2023-03-14T05:32:37;98539.00;;;9.15;100.00
12987;BME280;58897;51.960;5.582;2023-03-14T05:35:05;98542.06;;;9.25;100.00
12987;BME280;58897;51.960;5.582;2023-03-14T05:37:31;98544.78;;;9.25;100.00
12987;BME280;58897;51.960;5.582;2023-03-14T05:39:58;98539.59;;;9.24;100.00
12987;BME280;58897;51.960;5.582;2023-03-14T05:42:24;98541.91;;;9.14;100.00
12987;BME280;58897;51.960;5.582;2023-03-14T05:44:51;98534.25;;;9.11;100.00
12987;BME280;58897;51.960;5.582;2023-03-14T05:47:17;98534.25;;;9.04;100.00
12987;BME280;58897;51.960;5.582;2023-03-14T05:49:44;98537.75;;;9.05;100.00
12987;BME280;58897;51.960;5.582;2023-03-14T05:52:11;98539.22;;;9.01;100.00
12987;BME280;58897;51.960;5.582;2023-03-14T05:54:38;98539.44;;;9.12;100.00
12987;BME280;58897;51.960;5.582;2023-03-14T05:57:04;98533.63;;;9.02;100.00
12987;BME280;58897;51.960;5.582;2023-03-14T05:59:31;98537.56;;;9.06;100.00
12987;BME280;58897;51.960;5.582;2023-03-14T06:01:57;98529.50;;;9.06;100.00
12987;BME280;58897;51.960;5.582;2023-03-14T06:04:24;98529.69;;;9.05;100.00
12987;BME280;58897;51.960;5.582;2023-03-14T06:06:51;98535.09;;;8.98;100.00
12987;BME280;58897;51.960;5.582;2023-03-14T06:09:17;98538.19;;;9.08;100.00
12987;BME280;58897;51.960;5.582;2023-03-14T06:11:46;98532.38;;;9.05;100.00
12987;BME280;58897;51.960;5.582;2023-03-14T06:14:12;98541.69;;;9.02;100.00
12987;BME280;58897;51.960;5.582;2023-03-14T06:16:39;98535.50;;;8.95;100.00
12987;BME280;58897;51.960;5.582;2023-03-14T06:19:05;98540.91;;;9.02;100.00
12987;BME280;58897;51.960;5.582;2023-03-14T06:21:32;98541.31;;;8.99;100.00
12987;BME280;58897;51.960;5.582;2023-03-14T06:23:59;98535.50;;;9.02;100.00
12987;BME280;58897;51.960;5.582;2023-03-14T06:26:25;98535.31;;;8.97;100.00
12987;BME280;58897;51.960;5.582;2023-03-14T06:28:52;98540.06;;;9.01;100.00
12987;BME280;58897;51.960;5.582;2023-03-14T06:31:19;98540.47;;;8.98;100.00
12987;BME280;58897;51.960;5.582;2023-03-14T06:33:46;98531.16;;;9.01;100.00
12987;BME280;58897;51.960;5.582;2023-03-14T06:36:13;98539.44;;;8.99;100.00
12987;BME280;58897;51.960;5.582;2023-03-14T06:38:39;98536.75;;;8.99;100.00
12987;BME280;58897;51.960;5.582;2023-03-14T06:41:07;98540.25;;;9.00;100.00
12987;BME280;58897;51.960;5.582;2023-03-14T06:43:34;98539.44;;;8.99;100.00
12987;BME280;58897;51.960;5.582;2023-03-14T06:46:00;98543.16;;;9.05;100.00
12987;BME280;58897;51.960;5.582;2023-03-14T06:48:27;98550.00;;;9.14;100.00
12987;BME280;58897;51.960;5.582;2023-03-14T06:50:54;98535.50;;;9.15;100.00
12987;BME280;58897;51.960;5.582;2023-03-14T06:53:20;98552.06;;;9.12;100.00
12987;BME280;58897;51.960;5.582;2023-03-14T06:55:47;98554.13;;;9.16;100.00
12987;BME280;58897;51.960;5.582;2023-03-14T06:58:13;98553.69;;;9.13;100.00
12987;BME280;58897;51.960;5.582;2023-03-14T07:00:40;98607.38;;;9.14;100.00
12987;BME280;58897;51.960;5.582;2023-03-14T07:03:06;98637.63;;;9.16;100.00
12987;BME280;58897;51.960;5.582;2023-03-14T07:05:33;98653.56;;;8.92;100.00
12987;BME280;58897;51.960;5.582;2023-03-14T07:08:00;98643.63;;;8.99;100.00
12987;BME280;58897;51.960;5.582;2023-03-14T07:10:26;98652.94;;;8.90;100.00
12987;BME280;58897;51.960;5.582;2023-03-14T07:12:53;98652.31;;;8.88;100.00
12987;BME280;58897;51.960;5.582;2023-03-14T07:15:20;98668.66;;;8.73;100.00
12987;BME280;58897;51.960;5.582;2023-03-14T07:17:46;98664.28;;;8.79;100.00
12987;BME280;58897;51.960;5.582;2023-03-14T07:20:14;98670.94;;;8.83;100.00
12987;BME280;58897;51.960;5.582;2023-03-14T07:22:41;98675.28;;;8.71;100.00
12987;BME280;58897;51.960;5.582;2023-03-14T07:25:08;98685.03;;;8.78;100.00
12987;BME280;58897;51.960;5.582;2023-03-14T07:27:38;98690.97;;;8.60;100.00
12987;BME280;58897;51.960;5.582;2023-03-14T07:30:05;98696.78;;;8.64;100.00
12987;BME280;58897;51.960;5.582;2023-03-14T07:32:32;98710.25;;;8.64;100.00
12987;BME280;58897;51.960;5.582;2023-03-14T07:34:59;98717.50;;;8.70;100.00
12987;BME280;58897;51.960;5.582;2023-03-14T07:37:25;98731.59;;;8.65;100.00
12987;BME280;58897;51.960;5.582;2023-03-14T07:39:52;98741.47;;;8.58;100.00
12987;BME280;58897;51.960;5.582;2023-03-14T07:42:18;98748.47;;;8.46;100.00
12987;BME280;58897;51.960;5.582;2023-03-14T07:44:45;98754.69;;;8.53;100.00
12987;BME280;58897;51.960;5.582;2023-03-14T07:47:11;98760.53;;;8.57;100.00
12987;BME280;58897;51.960;5.582;2023-03-14T07:49:38;98775.22;;;8.61;100.00
12987;BME280;58897;51.960;5.582;2023-03-14T07:52:05;98782.38;;;8.41;100.00
12987;BME280;58897;51.960;5.582;2023-03-14T07:54:31;98787.63;;;8.55;100.00
12987;BME280;58897;51.960;5.582;2023-03-14T07:56:58;98791.13;;;8.49;100.00
12987;BME280;58897;51.960;5.582;2023-03-14T07:59:27;98800.81;;;8.44;100.00
12987;BME280;58897;51.960;5.582;2023-03-14T08:01:54;98811.59;;;8.50;100.00
12987;BME280;58897;51.960;5.582;2023-03-14T08:04:20;98830.25;;;8.52;100.00
12987;BME280;58897;51.960;5.582;2023-03-14T08:06:47;98835.03;;;8.56;100.00
12987;BME280;58897;51.960;5.582;2023-03-14T08:09:13;98839.34;;;8.44;100.00
12987;BME280;58897;51.960;5.582;2023-03-14T08:11:40;98856.44;;;8.71;100.00
12987;BME280;58897;51.960;5.582;2023-03-14T08:14:07;98858.88;;;8.59;100.00
12987;BME280;58897;51.960;5.582;2023-03-14T08:16:33;98854.88;;;8.49;100.00
12987;BME280;58897;51.960;5.582;2023-03-14T08:19:00;98862.19;;;8.61;100.00
12987;BME280;58897;51.960;5.582;2023-03-14T08:21:26;98878.69;;;8.52;100.00
12987;BME280;58897;51.960;5.582;2023-03-14T08:23:53;98874.16;;;8.52;100.00
12987;BME280;58897;51.960;5.582;2023-03-14T08:26:20;98883.78;;;8.75;100.00
12987;BME280;58897;51.960;5.582;2023-03-14T08:28:46;98891.09;;;8.81;100.00
12987;BME280;58897;51.960;5.582;2023-03-14T08:31:13;98896.56;;;8.66;100.00
12987;BME280;58897;51.960;5.582;2023-03-14T08:33:40;98915.66;;;8.71;100.00
12987;BME280;58897;51.960;5.582;2023-03-14T08:36:07;98928.44;;;8.14;100.00
12987;BME280;58897;51.960;5.582;2023-03-14T08:38:35;98945.28;;;8.01;100.00
12987;BME280;58897;51.960;5.582;2023-03-14T08:41:02;98956.97;;;8.08;100.00
12987;BME280;58897;51.960;5.582;2023-03-14T08:43:30;98972.38;;;7.78;100.00
12987;BME280;58897;51.960;5.582;2023-03-14T08:45:58;98980.38;;;7.93;100.00
12987;BME280;58897;51.960;5.582;2023-03-14T08:48:25;98997.13;;;7.74;100.00
12987;BME280;58897;51.960;5.582;2023-03-14T08:50:51;99015.00;;;7.67;100.00
12987;BME280;58897;51.960;5.582;2023-03-14T08:53:18;99040.88;;;7.68;100.00
12987;BME280;58897;51.960;5.582;2023-03-14T08:55:45;99039.50;;;7.93;100.00
12987;BME280;58897;51.960;5.582;2023-03-14T08:58:11;99045.25;;;8.04;100.00
12987;BME280;58897;51.960;5.582;2023-03-14T09:00:38;99041.53;;;8.05;100.00
12987;BME280;58897;51.960;5.582;2023-03-14T09:03:04;99058.72;;;8.26;100.00
12987;BME280;58897;51.960;5.582;2023-03-14T09:05:33;99054.38;;;8.46;100.00
12987;BME280;58897;51.960;5.582;2023-03-14T09:08:00;99064.19;;;8.53;100.00
12987;BME280;58897;51.960;5.582;2023-03-14T09:10:27;99068.53;;;8.76;100.00
12987;BME280;58897;51.960;5.582;2023-03-14T09:12:53;99089.56;;;8.44;100.00
12987;BME280;58897;51.960;5.582;2023-03-14T09:15:20;99082.63;;;9.05;100.00
12987;BME280;58897;51.960;5.582;2023-03-14T09:17:47;99079.19;;;9.18;100.00
12987;BME280;58897;51.960;5.582;2023-03-14T09:20:13;99089.63;;;9.00;100.00
12987;BME280;58897;51.960;5.582;2023-03-14T09:22:40;99116.13;;;8.33;100.00
12987;BME280;58897;51.960;5.582;2023-03-14T09:25:07;99119.03;;;8.74;100.00
12987;BME280;58897;51.960;5.582;2023-03-14T09:27:34;99126.59;;;8.63;100.00
12987;BME280;58897;51.960;5.582;2023-03-14T09:30:01;99136.00;;;8.95;100.00
12987;BME280;58897;51.960;5.582;2023-03-14T09:32:27;99136.75;;;9.10;100.00
12987;BME280;58897;51.960;5.582;2023-03-14T09:34:54;99135.34;;;8.65;100.00
12987;BME280;58897;51.960;5.582;2023-03-14T09:37:20;99159.47;;;8.59;100.00
12987;BME280;58897;51.960;5.582;2023-03-14T09:39:47;99174.94;;;8.72;100.00
12987;BME280;58897;51.960;5.582;2023-03-14T09:42:18;99177.66;;;8.36;100.00
12987;BME280;58897;51.960;5.582;2023-03-14T09:44:59;99194.53;;;8.30;100.00
12987;BME280;58897;51.960;5.582;2023-03-14T09:47:28;99201.84;;;8.36;100.00
12987;BME280;58897;51.960;5.582;2023-03-14T09:49:54;99216.09;;;8.51;100.00
12987;BME280;58897;51.960;5.582;2023-03-14T09:52:28;99219.75;;;8.79;100.00
12987;BME280;58897;51.960;5.582;2023-03-14T09:55:02;99235.59;;;8.89;100.00
12987;BME280;58897;51.960;5.582;2023-03-14T09:57:29;99242.53;;;9.19;100.00
12987;BME280;58897;51.960;5.582;2023-03-14T10:00:03;99247.19;;;9.31;100.00
12987;BME280;58897;51.960;5.582;2023-03-14T10:02:42;99243.38;;;9.19;100.00
12987;BME280;58897;51.960;5.582;2023-03-14T10:05:18;99263.13;;;9.26;100.00
12987;BME280;58897;51.960;5.582;2023-03-14T10:07:45;99276.66;;;9.12;100.00
12987;BME280;58897;51.960;5.582;2023-03-14T10:10:23;99285.03;;;9.02;100.00
12987;BME280;58897;51.960;5.582;2023-03-14T10:12:59;99299.38;;;8.88;100.00
12987;BME280;58897;51.960;5.582;2023-03-14T10:15:30;99308.38;;;8.95;100.00
12987;BME280;58897;51.960;5.582;2023-03-14T10:18:00;99320.94;;;8.74;100.00
12987;BME280;58897;51.960;5.582;2023-03-14T10:20:38;99332.22;;;8.62;100.00
12987;BME280;58897;51.960;5.582;2023-03-14T10:23:19;99337.53;;;8.92;100.00
12987;BME280;58897;51.960;5.582;2023-03-14T10:26:05;99355.84;;;8.82;100.00
12987;BME280;58897;51.960;5.582;2023-03-14T10:28:51;99369.47;;;8.95;100.00
12987;BME280;58897;51.960;5.582;2023-03-14T10:31:18;99371.72;;;8.91;100.00
12987;BME280;58897;51.960;5.582;2023-03-14T10:33:59;99389.44;;;9.15;100.00
12987;BME280;58897;51.960;5.582;2023-03-14T10:36:30;99397.38;;;9.23;100.00
12987;BME280;58897;51.960;5.582;2023-03-14T10:39:30;99397.34;;;9.38;100.00
12987;BME280;58897;51.960;5.582;2023-03-14T10:42:29;99419.59;;;9.25;100.00
12987;BME280;58897;51.960;5.582;2023-03-14T10:45:05;99456.22;;;8.76;100.00
12987;BME280;58897;51.960;5.582;2023-03-14T10:47:34;99465.94;;;8.25;100.00
12987;BME280;58897;51.960;5.582;2023-03-14T10:50:23;99496.31;;;7.88;100.00
12987;BME280;58897;51.960;5.582;2023-03-14T10:52:52;99494.28;;;8.13;100.00
12987;BME280;58897;51.960;5.582;2023-03-14T10:55:39;99502.59;;;8.48;100.00
12987;BME280;58897;51.960;5.582;2023-03-14T10:58:21;99500.41;;;8.66;100.00
12987;BME280;58897;51.960;5.582;2023-03-14T11:00:53;99512.25;;;9.09;100.00
12987;BME280;58897;51.960;5.582;2023-03-14T11:03:23;99513.34;;;9.29;100.00
12987;BME280;58897;51.960;5.582;2023-03-14T11:05:57;99519.06;;;9.56;100.00
12987;BME280;58897;51.960;5.582;2023-03-14T11:08:41;99529.78;;;9.05;100.00
12987;BME280;58897;51.960;5.582;2023-03-14T11:11:20;99547.31;;;8.87;100.00
12987;BME280;58897;51.960;5.582;2023-03-14T11:23:08;99594.28;;;9.21;100.00
12987;BME280;58897;51.960;5.582;2023-03-14T11:25:27;99602.28;;;8.78;100.00
12987;BME280;58897;51.960;5.582;2023-03-14T11:30:54;99619.13;;;9.46;100.00
12987;BME280;58897;51.960;5.582;2023-03-14T11:33:25;99606.44;;;9.47;100.00
12987;BME280;58897;51.960;5.582;2023-03-14T11:36:10;99609.38;;;10.88;100.00
12987;BME280;58897;51.960;5.582;2023-03-14T11:38:46;99606.16;;;12.82;100.00
12987;BME280;58897;51.960;5.582;2023-03-14T11:41:19;99611.38;;;13.43;100.00
12987;BME280;58897;51.960;5.582;2023-03-14T11:43:48;99630.66;;;11.88;100.00
12987;BME280;58897;51.960;5.582;2023-03-14T11:46:38;99637.69;;;13.36;100.00
12987;BME280;58897;51.960;5.582;2023-03-14T11:49:38;99647.13;;;14.55;100.00
12987;BME280;58897;51.960;5.582;2023-03-14T11:52:12;99657.94;;;14.68;100.00
12987;BME280;58897;51.960;5.582;2023-03-14T11:54:43;99666.88;;;15.37;100.00
12987;BME280;58897;51.960;5.582;2023-03-14T11:57:18;99680.28;;;14.32;100.00
12987;BME280;58897;51.960;5.582;2023-03-14T11:59:59;99681.06;;;13.36;100.00
12987;BME280;58897;51.960;5.582;2023-03-14T12:08:08;99688.84;;;16.22;94.26
12987;BME280;58897;51.960;5.582;2023-03-14T12:10:59;99704.56;;;14.01;92.82
12987;BME280;58897;51.960;5.582;2023-03-14T12:13:37;99721.09;;;14.63;87.28
12987;BME280;58897;51.960;5.582;2023-03-14T12:16:19;99729.97;;;15.21;85.36
12987;BME280;58897;51.960;5.582;2023-03-14T12:18:50;99735.94;;;13.97;84.51
12987;BME280;58897;51.960;5.582;2023-03-14T12:21:18;99733.59;;;14.00;86.76
12987;BME280;58897;51.960;5.582;2023-03-14T12:23:52;99739.69;;;13.24;93.00
12987;BME280;58897;51.960;5.582;2023-03-14T12:26:25;99748.59;;;12.98;81.16
12987;BME280;58897;51.960;5.582;2023-03-14T12:29:11;99746.38;;;14.00;80.32
12987;BME280;58897;51.960;5.582;2023-03-14T12:31:45;99765.06;;;14.47;74.32
12987;BME280;58897;51.960;5.582;2023-03-14T12:36:52;99760.09;;;16.43;59.75
12987;BME280;58897;51.960;5.582;2023-03-14T12:42:42;99770.19;;;15.75;64.20
12987;BME280;58897;51.960;5.582;2023-03-14T12:45:34;99772.97;;;15.93;67.30
12987;BME280;58897;51.960;5.582;2023-03-14T12:48:22;99789.25;;;15.44;62.12
12987;BME280;58897;51.960;5.582;2023-03-14T12:50:54;99791.28;;;15.24;64.78
12987;BME280;58897;51.960;5.582;2023-03-14T12:59:20;99800.69;;;16.08;45.99
12987;BME280;58897;51.960;5.582;2023-03-14T13:02:14;99816.94;;;15.72;51.18
12987;BME280;58897;51.960;5.582;2023-03-14T13:04:46;99826.47;;;15.57;50.87
12987;BME280;58897;51.960;5.582;2023-03-14T13:10:17;99827.53;;;15.56;50.71
12987;BME280;58897;51.960;5.582;2023-03-14T13:15:21;99828.59;;;16.29;48.15
12987;BME280;58897;51.960;5.582;2023-03-14T13:17:51;99847.03;;;15.53;44.02
12987;BME280;58897;51.960;5.582;2023-03-14T13:20:47;99859.75;;;14.57;50.74
12987;BME280;58897;51.960;5.582;2023-03-14T13:23:21;99870.41;;;15.67;47.45
12987;BME280;58897;51.960;5.582;2023-03-14T13:25:47;99878.28;;;15.75;46.56
12987;BME280;58897;51.960;5.582;2023-03-14T13:28:14;99891.44;;;15.78;48.59
12987;BME280;58897;51.960;5.582;2023-03-14T13:30:44;99892.53;;;16.01;44.43
12987;BME280;58897;51.960;5.582;2023-03-14T13:33:22;99904.34;;;15.95;47.03
12987;BME280;58897;51.960;5.582;2023-03-14T13:35:55;99904.03;;;16.03;48.93
12987;BME280;58897;51.960;5.582;2023-03-14T13:38:25;99913.38;;;15.58;48.39
12987;BME280;58897;51.960;5.582;2023-03-14T13:40:55;99920.47;;;15.02;54.80
12987;BME280;58897;51.960;5.582;2023-03-14T13:43:35;99932.31;;;15.27;50.60
12987;BME280;58897;51.960;5.582;2023-03-14T13:46:05;99918.03;;;16.14;50.52
12987;BME280;58897;51.960;5.582;2023-03-14T13:48:43;99931.44;;;15.33;53.14
12987;BME280;58897;51.960;5.582;2023-03-14T13:51:13;99941.03;;;15.42;49.22